sensor_id;sensor_type;location;lat;lon;timestamp;temperature;humidity
26051;DHT22;13825;53.496;10.020;2023-07-13T00:07:56;16.00;99.90
26051;DHT22;13825;53.496;10.020;2023-07-13T00:10:48;16.00;99.90
26051;DHT22;13825;53.496;10.020;2023-07-13T00:13:24;15.90;99.90
26051;DHT22;13825;53.496;10.020;2023-07-13T00:16:17;15.90;99.90
26051;DHT22;13825;53.496;10.020;2023-07-13T00:18:55;15.80;99.90
26051;DHT22;13825;53.496;10.020;2023-07-13T00:21:43;15.70;99.90
26051;DHT22;13825;53.496;10.020;2023-07-13T00:24:28;15.70;99.90
26051;DHT22;13825;53.496;10.020;2023-07-13T00:27:10;15.60;99.90
26051;DHT22;13825;53.496;10.020;2023-07-13T01:32:27;14.80;99.90
26051;DHT22;13825;53.496;10.020;2023-07-13T01:35:15;14.80;99.90
26051;DHT22;13825;53.496;10.020;2023-07-13T01:39:18;14.80;99.90
26051;DHT22;13825;53.496;10.020;2023-07-13T02:08:15;14.60;99.90
26051;DHT22;13825;53.496;10.020;2023-07-13T02:11:54;14.70;99.90
26051;DHT22;13825;53.496;10.020;2023-07-13T02:14:41;14.70;99.90
26051;DHT22;13825;53.496;10.020;2023-07-13T02:26:51;14.90;99.90
26051;DHT22;13825;53.496;10.020;2023-07-13T02:32:42;14.80;99.90
26051;DHT22;13825;53.496;10.020;2023-07-13T02:35:24;14.80;99.90
26051;DHT22;13825;53.496;10.020;2023-07-13T02:38:15;14.80;99.90
26051;DHT22;13825;53.496;10.020;2023-07-13T03:26:00;14.70;99.90
26051;DHT22;13825;53.496;10.020;2023-07-13T03:28:39;14.70;99.90
26051;DHT22;13825;53.496;10.020;2023-07-13T03:31:50;14.70;99.90
26051;DHT22;13825;53.496;10.020;2023-07-13T03:34:59;14.70;99.90
26051;DHT22;13825;53.496;10.020;2023-07-13T03:44:29;14.70;99.90
26051;DHT22;13825;53.496;10.020;2023-07-13T04:33:13;15.10;99.90
26051;DHT22;13825;53.496;10.020;2023-07-13T04:46:10;15.30;99.90
26051;DHT22;13825;53.496;10.020;2023-07-13T04:51:44;15.40;99.90
26051;DHT22;13825;53.496;10.020;2023-07-13T04:54:17;15.50;99.90
26051;DHT22;13825;53.496;10.020;2023-07-13T04:56:53;15.50;99.90
26051;DHT22;13825;53.496;10.020;2023-07-13T04:59:44;15.60;99.90
26051;DHT22;13825;53.496;10.020;2023-07-13T05:02:23;15.70;99.90
26051;DHT22;13825;53.496;10.020;2023-07-13T05:04:57;15.80;99.90
26051;DHT22;13825;53.496;10.020;2023-07-13T05:07:43;16.00;99.90
26051;DHT22;13825;53.496;10.020;2023-07-13T05:10:14;16.10;99.90
26051;DHT22;13825;53.496;10.020;2023-07-13T05:12:41;16.30;99.90
26051;DHT22;13825;53.496;10.020;2023-07-13T05:15:09;16.50;99.90
26051;DHT22;13825;53.496;10.020;2023-07-13T05:17:36;16.70;99.90
26051;DHT22;13825;53.496;10.020;2023-07-13T05:20:06;16.70;99.90
26051;DHT22;13825;53.496;10.020;2023-07-13T05:22:43;16.90;99.90
26051;DHT22;13825;53.496;10.020;2023-07-13T05:25:13;17.00;99.90
26051;DHT22;13825;53.496;10.020;2023-07-13T05:27:40;17.20;99.90
26051;DHT22;13825;53.496;10.020;2023-07-13T05:30:15;17.30;99.90
26051;DHT22;13825;53.496;10.020;2023-07-13T05:32:53;17.50;99.90
26051;DHT22;13825;53.496;10.020;2023-07-13T05:35:21;17.50;99.90
26051;DHT22;13825;53.496;10.020;2023-07-13T05:37:48;17.50;99.90
26051;DHT22;13825;53.496;10.020;2023-07-13T05:40:15;17.40;99.90
26051;DHT22;13825;53.496;10.020;2023-07-13T05:42:42;17.30;99.90
26051;DHT22;13825;53.496;10.020;2023-07-13T05:45:09;17.20;99.90
26051;DHT22;13825;53.496;10.020;2023-07-13T05:47:36;17.20;99.90
26051;DHT22;13825;53.496;10.020;2023-07-13T05:50:03;17.00;99.90
26051;DHT22;13825;53.496;10.020;2023-07-13T05:53:00;17.10;99.90
26051;DHT22;13825;53.496;10.020;2023-07-13T05:55:36;17.00;99.90
26051;DHT22;13825;53.496;10.020;2023-07-13T05:58:16;17.00;99.90
26051;DHT22;13825;53.496;10.020;2023-07-13T06:01:05;17.10;99.90
26051;DHT22;13825;53.496;10.020;2023-07-13T06:05:22;17.10;99.90
26051;DHT22;13825;53.496;10.020;2023-07-13T06:09:55;17.20;99.90
26051;DHT22;13825;53.496;10.020;2023-07-13T06:13:48;17.30;99.90
26051;DHT22;13825;53.496;10.020;2023-07-13T06:16:18;17.40;99.90
26051;DHT22;13825;53.496;10.020;2023-07-13T06:18:45;17.40;99.90
26051;DHT22;13825;53.496;10.020;2023-07-13T06:21:32;17.40;99.90
26051;DHT22;13825;53.496;10.020;2023-07-13T06:23:59;17.50;99.90
26051;DHT22;13825;53.496;10.020;2023-07-13T06:26:44;17.50;99.90
26051;DHT22;13825;53.496;10.020;2023-07-13T06:29:21;17.60;99.90
26051;DHT22;13825;53.496;10.020;2023-07-13T06:32:01;17.70;99.90
26051;DHT22;13825;53.496;10.020;2023-07-13T06:34:31;17.80;99.90
26051;DHT22;13825;53.496;10.020;2023-07-13T06:37:04;17.90;99.90
26051;DHT22;13825;53.496;10.020;2023-07-13T06:39:38;17.80;99.90
26051;DHT22;13825;53.496;10.020;2023-07-13T06:42:06;18.00;99.90
26051;DHT22;13825;53.496;10.020;2023-07-13T06:44:45;18.00;99.90
26051;DHT22;13825;53.496;10.020;2023-07-13T06:47:15;18.10;99.90
26051;DHT22;13825;53.496;10.020;2023-07-13T06:49:43;18.20;99.90
26051;DHT22;13825;53.496;10.020;2023-07-13T06:52:10;18.10;99.90
26051;DHT22;13825;53.496;10.020;2023-07-13T06:55:07;18.20;99.90
26051;DHT22;13825;53.496;10.020;2023-07-13T06:57:53;18.20;99.90
26051;DHT22;13825;53.496;10.020;2023-07-13T07:07:33;18.00;99.90
26051;DHT22;13825;53.496;10.020;2023-07-13T07:10:44;18.00;99.90
26051;DHT22;13825;53.496;10.020;2023-07-13T07:13:22;17.90;99.90
26051;DHT22;13825;53.496;10.020;2023-07-13T07:15:56;17.80;99.90
26051;DHT22;13825;53.496;10.020;2023-07-13T07:18:25;18.00;99.90
26051;DHT22;13825;53.496;10.020;2023-07-13T07:20:56;18.00;99.90
26051;DHT22;13825;53.496;10.020;2023-07-13T07:23:27;18.10;99.90
26051;DHT22;13825;53.496;10.020;2023-07-13T07:25:54;18.20;99.90
26051;DHT22;13825;53.496;10.020;2023-07-13T07:28:29;18.20;99.90
26051;DHT22;13825;53.496;10.020;2023-07-13T07:30:57;18.20;99.90
26051;DHT22;13825;53.496;10.020;2023-07-13T07:36:23;18.30;99.90
26051;DHT22;13825;53.496;10.020;2023-07-13T07:39:02;18.30;99.90
26051;DHT22;13825;53.496;10.020;2023-07-13T07:41:30;18.40;99.90
26051;DHT22;13825;53.496;10.020;2023-07-13T07:44:05;18.50;99.90
26051;DHT22;13825;53.496;10.020;2023-07-13T07:46:35;19.00;99.90
26051;DHT22;13825;53.496;10.020;2023-07-13T07:49:08;19.20;99.90
26051;DHT22;13825;53.496;10.020;2023-07-13T07:51:39;19.50;99.90
26051;DHT22;13825;53.496;10.020;2023-07-13T07:54:16;19.60;96.60
26051;DHT22;13825;53.496;10.020;2023-07-13T07:57:08;19.10;1.00
26051;DHT22;13825;53.496;10.020;2023-07-13T07:59:37;18.80;1.00
26051;DHT22;13825;53.496;10.020;2023-07-13T08:02:13;19.00;99.90
26051;DHT22;13825;53.496;10.020;2023-07-13T08:04:45;19.20;1.00
26051;DHT22;13825;53.496;10.020;2023-07-13T08:07:25;19.30;1.00
26051;DHT22;13825;53.496;10.020;2023-07-13T08:10:01;19.50;1.00
26051;DHT22;13825;53.496;10.020;2023-07-13T08:12:37;19.80;1.00
26051;DHT22;13825;53.496;10.020;2023-07-13T08:15:31;19.90;1.00
26051;DHT22;13825;53.496;10.020;2023-07-13T08:18:02;19.90;16.00
26051;DHT22;13825;53.496;10.020;2023-07-13T08:20:29;19.80;99.90
26051;DHT22;13825;53.496;10.020;2023-07-13T08:25:36;20.30;99.90
26051;DHT22;13825;53.496;10.020;2023-07-13T08:28:10;20.60;99.90
26051;DHT22;13825;53.496;10.020;2023-07-13T08:30:38;20.40;1.00
26051;DHT22;13825;53.496;10.020;2023-07-13T08:33:12;20.40;1.00
26051;DHT22;13825;53.496;10.020;2023-07-13T08:35:49;20.40;1.00
26051;DHT22;13825;53.496;10.020;2023-07-13T08:38:17;20.90;99.90
26051;DHT22;13825;53.496;10.020;2023-07-13T08:43:39;21.10;1.00
26051;DHT22;13825;53.496;10.020;2023-07-13T08:46:27;20.90;1.00
26051;DHT22;13825;53.496;10.020;2023-07-13T08:49:16;21.20;99.90
26051;DHT22;13825;53.496;10.020;2023-07-13T08:51:46;21.60;1.50
26051;DHT22;13825;53.496;10.020;2023-07-13T08:54:32;21.90;99.90
26051;DHT22;13825;53.496;10.020;2023-07-13T08:57:05;21.50;1.00
26051;DHT22;13825;53.496;10.020;2023-07-13T09:00:13;21.30;1.00
26051;DHT22;13825;53.496;10.020;2023-07-13T09:02:46;21.40;99.90
26051;DHT22;13825;53.496;10.020;2023-07-13T09:05:51;21.30;1.00
26051;DHT22;13825;53.496;10.020;2023-07-13T09:08:49;21.20;1.00
26051;DHT22;13825;53.496;10.020;2023-07-13T09:11:45;21.00;1.00
26051;DHT22;13825;53.496;10.020;2023-07-13T09:14:42;20.60;99.90
26051;DHT22;13825;53.496;10.020;2023-07-13T09:17:33;20.20;1.00
26051;DHT22;13825;53.496;10.020;2023-07-13T09:20:08;20.20;1.00
26051;DHT22;13825;53.496;10.020;2023-07-13T09:22:42;20.00;1.00
26051;DHT22;13825;53.496;10.020;2023-07-13T09:25:27;20.20;1.00
26051;DHT22;13825;53.496;10.020;2023-07-13T09:28:15;20.60;1.00
26051;DHT22;13825;53.496;10.020;2023-07-13T09:30:52;20.90;99.90
26051;DHT22;13825;53.496;10.020;2023-07-13T09:33:29;21.20;26.20
26051;DHT22;13825;53.496;10.020;2023-07-13T09:36:22;21.70;1.00
26051;DHT22;13825;53.496;10.020;2023-07-13T09:42:03;21.50;99.90
26051;DHT22;13825;53.496;10.020;2023-07-13T09:44:38;21.60;37.00
26051;DHT22;13825;53.496;10.020;2023-07-13T09:47:53;22.10;1.00
26051;DHT22;13825;53.496;10.020;2023-07-13T09:53:31;21.90;99.90
26051;DHT22;13825;53.496;10.020;2023-07-13T09:56:11;22.30;1.00
26051;DHT22;13825;53.496;10.020;2023-07-13T09:58:58;22.50;1.00
26051;DHT22;13825;53.496;10.020;2023-07-13T10:01:41;22.30;1.00
26051;DHT22;13825;53.496;10.020;2023-07-13T10:04:26;22.30;1.00
26051;DHT22;13825;53.496;10.020;2023-07-13T10:07:04;21.90;99.90
26051;DHT22;13825;53.496;10.020;2023-07-13T10:09:34;21.60;99.90
26051;DHT22;13825;53.496;10.020;2023-07-13T10:12:01;21.70;99.90
26051;DHT22;13825;53.496;10.020;2023-07-13T10:14:32;21.50;99.90
26051;DHT22;13825;53.496;10.020;2023-07-13T10:17:00;21.50;1.00
26051;DHT22;13825;53.496;10.020;2023-07-13T10:19:31;21.60;99.90
26051;DHT22;13825;53.496;10.020;2023-07-13T10:22:10;21.30;1.00
26051;DHT22;13825;53.496;10.020;2023-07-13T10:24:44;20.90;1.00
26051;DHT22;13825;53.496;10.020;2023-07-13T10:27:18;21.00;99.90
26051;DHT22;13825;53.496;10.020;2023-07-13T10:29:51;20.90;99.90
26051;DHT22;13825;53.496;10.020;2023-07-13T10:32:21;21.40;99.90
26051;DHT22;13825;53.496;10.020;2023-07-13T10:34:53;22.00;99.90
26051;DHT22;13825;53.496;10.020;2023-07-13T11:42:10;23.10;1.00
26051;DHT22;13825;53.496;10.020;2023-07-13T11:44:55;23.50;1.00
26051;DHT22;13825;53.496;10.020;2023-07-13T11:47:23;24.00;1.00
26051;DHT22;13825;53.496;10.020;2023-07-13T11:52:35;25.00;1.00
26051;DHT22;13825;53.496;10.020;2023-07-13T11:55:14;25.10;1.00
26051;DHT22;13825;53.496;10.020;2023-07-13T11:57:47;24.30;1.00
26051;DHT22;13825;53.496;10.020;2023-07-13T12:00:18;23.80;1.00
26051;DHT22;13825;53.496;10.020;2023-07-13T12:02:51;24.30;99.90
26051;DHT22;13825;53.496;10.020;2023-07-13T12:05:22;24.40;1.00
26051;DHT22;13825;53.496;10.020;2023-07-13T12:07:50;24.10;1.00
26051;DHT22;13825;53.496;10.020;2023-07-13T12:10:22;23.70;1.00
26051;DHT22;13825;53.496;10.020;2023-07-13T12:12:55;23.10;1.00
26051;DHT22;13825;53.496;10.020;2023-07-13T12:15:40;22.80;1.00
26051;DHT22;13825;53.496;10.020;2023-07-13T12:18:13;22.30;1.00
26051;DHT22;13825;53.496;10.020;2023-07-13T12:20:46;21.90;1.00
26051;DHT22;13825;53.496;10.020;2023-07-13T12:23:22;21.50;1.00
26051;DHT22;13825;53.496;10.020;2023-07-13T12:25:50;18.90;1.00
26051;DHT22;13825;53.496;10.020;2023-07-13T12:28:37;16.70;99.90
26051;DHT22;13825;53.496;10.020;2023-07-13T12:31:30;16.00;99.90
26051;DHT22;13825;53.496;10.020;2023-07-13T12:34:02;15.80;99.90
26051;DHT22;13825;53.496;10.020;2023-07-13T12:36:33;15.60;99.90
26051;DHT22;13825;53.496;10.020;2023-07-13T12:41:53;16.30;99.90
26051;DHT22;13825;53.496;10.020;2023-07-13T12:44:27;16.50;99.90
26051;DHT22;13825;53.496;10.020;2023-07-13T12:46:58;16.70;99.90
26051;DHT22;13825;53.496;10.020;2023-07-13T12:49:28;16.40;99.90
26051;DHT22;13825;53.496;10.020;2023-07-13T12:51:57;16.70;99.90
26051;DHT22;13825;53.496;10.020;2023-07-13T12:54:26;16.80;99.90
26051;DHT22;13825;53.496;10.020;2023-07-13T12:56:54;16.30;99.90
26051;DHT22;13825;53.496;10.020;2023-07-13T12:59:29;16.30;99.90
26051;DHT22;13825;53.496;10.020;2023-07-13T13:01:59;16.00;99.90
26051;DHT22;13825;53.496;10.020;2023-07-13T13:04:27;16.40;99.90
26051;DHT22;13825;53.496;10.020;2023-07-13T13:07:02;16.30;99.90
26051;DHT22;13825;53.496;10.020;2023-07-13T13:22:48;16.70;99.90
26051;DHT22;13825;53.496;10.020;2023-07-13T13:26:00;17.30;99.90
26051;DHT22;13825;53.496;10.020;2023-07-13T13:35:36;17.90;99.90
26051;DHT22;13825;53.496;10.020;2023-07-13T13:42:10;18.40;99.90
26051;DHT22;13825;53.496;10.020;2023-07-13T13:44:39;18.30;99.90
26051;DHT22;13825;53.496;10.020;2023-07-13T13:47:19;18.10;99.90
26051;DHT22;13825;53.496;10.020;2023-07-13T13:49:49;18.40;99.90
26051;DHT22;13825;53.496;10.020;2023-07-13T13:52:21;18.50;99.90
26051;DHT22;13825;53.496;10.020;2023-07-13T13:54:50;18.40;99.90
26051;DHT22;13825;53.496;10.020;2023-07-13T13:57:21;18.60;99.90
26051;DHT22;13825;53.496;10.020;2023-07-13T13:59:50;18.60;99.90
26051;DHT22;13825;53.496;10.020;2023-07-13T14:02:23;18.70;99.90
26051;DHT22;13825;53.496;10.020;2023-07-13T14:04:54;18.70;1.00
26051;DHT22;13825;53.496;10.020;2023-07-13T14:07:21;18.80;60.20
26051;DHT22;13825;53.496;10.020;2023-07-13T14:09:57;19.10;1.00
26051;DHT22;13825;53.496;10.020;2023-07-13T14:12:24;19.10;1.00
26051;DHT22;13825;53.496;10.020;2023-07-13T14:14:54;19.40;1.00
26051;DHT22;13825;53.496;10.020;2023-07-13T14:17:27;19.30;99.90
26051;DHT22;13825;53.496;10.020;2023-07-13T14:19:54;19.60;99.90
26051;DHT22;13825;53.496;10.020;2023-07-13T14:22:24;19.80;1.00
26051;DHT22;13825;53.496;10.020;2023-07-13T14:24:53;19.70;1.00
26051;DHT22;13825;53.496;10.020;2023-07-13T14:27:21;19.90;1.00
26051;DHT22;13825;53.496;10.020;2023-07-13T14:29:48;20.10;1.00
26051;DHT22;13825;53.496;10.020;2023-07-13T14:32:15;20.30;99.90
26051;DHT22;13825;53.496;10.020;2023-07-13T14:34:42;20.50;99.90
26051;DHT22;13825;53.496;10.020;2023-07-13T14:37:13;20.30;1.00
26051;DHT22;13825;53.496;10.020;2023-07-13T14:39:40;20.30;99.90
26051;DHT22;13825;53.496;10.020;2023-07-13T14:42:10;20.20;1.00
26051;DHT22;13825;53.496;10.020;2023-07-13T14:44:40;20.20;99.90
26051;DHT22;13825;53.496;10.020;2023-07-13T14:47:08;20.40;99.90
26051;DHT22;13825;53.496;10.020;2023-07-13T14:49:38;20.80;99.90
26051;DHT22;13825;53.496;10.020;2023-07-13T14:52:11;20.90;18.70
26051;DHT22;13825;53.496;10.020;2023-07-13T14:54:40;21.30;1.00
26051;DHT22;13825;53.496;10.020;2023-07-13T14:57:11;21.40;1.00
26051;DHT22;13825;53.496;10.020;2023-07-13T14:59:39;21.70;99.90
26051;DHT22;13825;53.496;10.020;2023-07-13T15:02:22;21.20;87.90
26051;DHT22;13825;53.496;10.020;2023-07-13T15:04:50;20.70;99.90
26051;DHT22;13825;53.496;10.020;2023-07-13T15:07:18;20.30;1.00
26051;DHT22;13825;53.496;10.020;2023-07-13T15:09:46;20.10;1.00
26051;DHT22;13825;53.496;10.020;2023-07-13T15:12:16;20.00;88.00
26051;DHT22;13825;53.496;10.020;2023-07-13T15:14:50;19.90;99.90
26051;DHT22;13825;53.496;10.020;2023-07-13T15:17:24;20.10;99.90
26051;DHT22;13825;53.496;10.020;2023-07-13T15:19:53;19.60;99.90
26051;DHT22;13825;53.496;10.020;2023-07-13T15:22:22;20.20;1.00
26051;DHT22;13825;53.496;10.020;2023-07-13T15:24:49;23.20;99.90
26051;DHT22;13825;53.496;10.020;2023-07-13T15:27:21;24.10;99.90
26051;DHT22;13825;53.496;10.020;2023-07-13T15:29:48;23.90;99.90
26051;DHT22;13825;53.496;10.020;2023-07-13T15:32:17;24.40;99.90
26051;DHT22;13825;53.496;10.020;2023-07-13T15:34:52;23.10;99.90
26051;DHT22;13825;53.496;10.020;2023-07-13T15:37:19;22.70;99.90
26051;DHT22;13825;53.496;10.020;2023-07-13T15:39:48;22.30;99.90
26051;DHT22;13825;53.496;10.020;2023-07-13T15:42:16;21.80;1.00
26051;DHT22;13825;53.496;10.020;2023-07-13T15:44:49;21.10;1.00
26051;DHT22;13825;53.496;10.020;2023-07-13T15:47:16;21.00;99.90
26051;DHT22;13825;53.496;10.020;2023-07-13T15:49:43;21.10;63.20
26051;DHT22;13825;53.496;10.020;2023-07-13T15:52:16;21.60;1.00
26051;DHT22;13825;53.496;10.020;2023-07-13T15:54:45;21.90;99.90
26051;DHT22;13825;53.496;10.020;2023-07-13T15:57:12;21.70;1.00
26051;DHT22;13825;53.496;10.020;2023-07-13T15:59:40;21.30;1.00
26051;DHT22;13825;53.496;10.020;2023-07-13T16:02:19;21.20;1.00
26051;DHT22;13825;53.496;10.020;2023-07-13T16:04:47;20.70;99.90
26051;DHT22;13825;53.496;10.020;2023-07-13T16:07:16;20.60;99.90
26051;DHT22;13825;53.496;10.020;2023-07-13T16:09:44;20.40;99.90
26051;DHT22;13825;53.496;10.020;2023-07-13T16:12:13;20.40;1.00
26051;DHT22;13825;53.496;10.020;2023-07-13T16:14:55;20.40;1.00
26051;DHT22;13825;53.496;10.020;2023-07-13T16:17:26;20.50;1.00
26051;DHT22;13825;53.496;10.020;2023-07-13T16:19:53;20.60;1.00
26051;DHT22;13825;53.496;10.020;2023-07-13T16:22:21;20.40;1.00
26051;DHT22;13825;53.496;10.020;2023-07-13T16:24:51;20.30;1.00
26051;DHT22;13825;53.496;10.020;2023-07-13T16:27:21;20.30;1.00
26051;DHT22;13825;53.496;10.020;2023-07-13T16:29:49;22.70;37.70
26051;DHT22;13825;53.496;10.020;2023-07-13T16:32:16;24.30;99.90
26051;DHT22;13825;53.496;10.020;2023-07-13T16:34:45;22.90;99.90
26051;DHT22;13825;53.496;10.020;2023-07-13T16:37:18;22.10;1.00
26051;DHT22;13825;53.496;10.020;2023-07-13T16:39:49;21.30;1.00
26051;DHT22;13825;53.496;10.020;2023-07-13T16:42:20;21.20;1.00
26051;DHT22;13825;53.496;10.020;2023-07-13T16:44:47;23.70;99.90
26051;DHT22;13825;53.496;10.020;2023-07-13T16:47:16;23.60;99.90
26051;DHT22;13825;53.496;10.020;2023-07-13T16:49:46;24.00;99.90
26051;DHT22;13825;53.496;10.020;2023-07-13T16:52:16;23.70;99.90
26051;DHT22;13825;53.496;10.020;2023-07-13T16:54:45;23.00;99.90
26051;DHT22;13825;53.496;10.020;2023-07-13T16:57:14;22.00;99.90
26051;DHT22;13825;53.496;10.020;2023-07-13T16:59:42;21.50;1.00
26051;DHT22;13825;53.496;10.020;2023-07-13T17:02:33;23.80;99.90
26051;DHT22;13825;53.496;10.020;2023-07-13T17:05:03;25.50;1.00
26051;DHT22;13825;53.496;10.020;2023-07-13T17:07:31;24.30;99.90
26051;DHT22;13825;53.496;10.020;2023-07-13T17:09:58;23.30;99.90
26051;DHT22;13825;53.496;10.020;2023-07-13T17:12:28;24.60;99.90
26051;DHT22;13825;53.496;10.020;2023-07-13T17:15:01;22.80;99.90
26051;DHT22;13825;53.496;10.020;2023-07-13T17:17:32;22.20;99.90
26051;DHT22;13825;53.496;10.020;2023-07-13T17:20:02;21.30;1.00
26051;DHT22;13825;53.496;10.020;2023-07-13T17:22:34;20.80;1.00
26051;DHT22;13825;53.496;10.020;2023-07-13T17:25:04;20.70;20.90
26051;DHT22;13825;53.496;10.020;2023-07-13T17:27:40;21.40;1.00
26051;DHT22;13825;53.496;10.020;2023-07-13T17:30:14;22.70;99.90
26051;DHT22;13825;53.496;10.020;2023-07-13T17:32:44;23.40;99.90
26051;DHT22;13825;53.496;10.020;2023-07-13T17:35:22;22.40;99.90
26051;DHT22;13825;53.496;10.020;2023-07-13T17:37:52;23.40;99.90
26051;DHT22;13825;53.496;10.020;2023-07-13T17:40:19;25.70;99.90
26051;DHT22;13825;53.496;10.020;2023-07-13T17:42:48;26.90;99.90
26051;DHT22;13825;53.496;10.020;2023-07-13T17:45:22;26.90;99.90
26051;DHT22;13825;53.496;10.020;2023-07-13T17:47:50;25.40;99.90
26051;DHT22;13825;53.496;10.020;2023-07-13T17:50:35;24.20;99.90
26051;DHT22;13825;53.496;10.020;2023-07-13T17:53:15;22.70;99.90
26051;DHT22;13825;53.496;10.020;2023-07-13T17:55:43;21.60;99.90
26051;DHT22;13825;53.496;10.020;2023-07-13T17:58:10;21.30;99.90
26051;DHT22;13825;53.496;10.020;2023-07-13T18:00:40;20.80;1.00
26051;DHT22;13825;53.496;10.020;2023-07-13T18:03:16;20.60;1.00
26051;DHT22;13825;53.496;10.020;2023-07-13T18:05:52;20.40;7.20
26051;DHT22;13825;53.496;10.020;2023-07-13T18:08:22;20.10;99.90
26051;DHT22;13825;53.496;10.020;2023-07-13T18:10:48;19.80;99.90
26051;DHT22;13825;53.496;10.020;2023-07-13T18:13:16;19.50;99.90
26051;DHT22;13825;53.496;10.020;2023-07-13T18:15:49;19.50;99.90
26051;DHT22;13825;53.496;10.020;2023-07-13T18:18:20;19.40;1.00
26051;DHT22;13825;53.496;10.020;2023-07-13T18:20:53;19.40;99.90
26051;DHT22;13825;53.496;10.020;2023-07-13T18:23:22;19.30;1.00
26051;DHT22;13825;53.496;10.020;2023-07-13T18:25:50;18.90;1.00
26051;DHT22;13825;53.496;10.020;2023-07-13T18:28:19;19.00;55.90
26051;DHT22;13825;53.496;10.020;2023-07-13T18:30:51;19.00;99.90
26051;DHT22;13825;53.496;10.020;2023-07-13T18:33:21;19.00;99.90
26051;DHT22;13825;53.496;10.020;2023-07-13T18:35:49;18.90;1.00
26051;DHT22;13825;53.496;10.020;2023-07-13T18:38:21;18.90;1.00
26051;DHT22;13825;53.496;10.020;2023-07-13T18:40:49;18.70;1.00
26051;DHT22;13825;53.496;10.020;2023-07-13T18:43:19;18.70;99.90
26051;DHT22;13825;53.496;10.020;2023-07-13T18:45:55;18.60;99.90
26051;DHT22;13825;53.496;10.020;2023-07-13T18:48:24;18.50;1.00
26051;DHT22;13825;53.496;10.020;2023-07-13T18:50:52;18.40;99.90
26051;DHT22;13825;53.496;10.020;2023-07-13T18:53:22;18.30;99.90
26051;DHT22;13825;53.496;10.020;2023-07-13T18:55:51;18.20;99.90
26051;DHT22;13825;53.496;10.020;2023-07-13T18:58:18;18.10;99.90
26051;DHT22;13825;53.496;10.020;2023-07-13T19:00:52;18.10;99.90
26051;DHT22;13825;53.496;10.020;2023-07-13T19:03:25;18.10;99.90
26051;DHT22;13825;53.496;10.020;2023-07-13T19:05:55;18.10;76.00
26051;DHT22;13825;53.496;10.020;2023-07-13T19:08:29;18.00;66.70
26051;DHT22;13825;53.496;10.020;2023-07-13T19:10:56;17.90;99.90
26051;DHT22;13825;53.496;10.020;2023-07-13T19:13:26;18.00;1.00
26051;DHT22;13825;53.496;10.020;2023-07-13T19:15:54;17.70;99.90
26051;DHT22;13825;53.496;10.020;2023-07-13T19:18:22;17.80;99.90
26051;DHT22;13825;53.496;10.020;2023-07-13T19:20:56;17.70;1.00
26051;DHT22;13825;53.496;10.020;2023-07-13T19:23:32;17.70;1.00
26051;DHT22;13825;53.496;10.020;2023-07-13T19:26:05;17.70;1.00
26051;DHT22;13825;53.496;10.020;2023-07-13T19:28:38;17.60;1.00
26051;DHT22;13825;53.496;10.020;2023-07-13T19:31:16;17.50;1.00
26051;DHT22;13825;53.496;10.020;2023-07-13T19:33:43;17.50;1.00
26051;DHT22;13825;53.496;10.020;2023-07-13T19:36:11;17.50;1.00
26051;DHT22;13825;53.496;10.020;2023-07-13T19:38:41;17.40;1.00
26051;DHT22;13825;53.496;10.020;2023-07-13T19:41:12;17.40;1.00
26051;DHT22;13825;53.496;10.020;2023-07-13T19:43:39;17.30;99.90
26051;DHT22;13825;53.496;10.020;2023-07-13T19:46:24;17.30;99.90
26051;DHT22;13825;53.496;10.020;2023-07-13T19:48:55;17.40;99.90
26051;DHT22;13825;53.496;10.020;2023-07-13T19:51:22;17.40;1.00
26051;DHT22;13825;53.496;10.020;2023-07-13T19:53:59;17.40;99.90
26051;DHT22;13825;53.496;10.020;2023-07-13T19:56:30;17.30;1.00
26051;DHT22;13825;53.496;10.020;2023-07-13T19:59:00;17.40;99.90
26051;DHT22;13825;53.496;10.020;2023-07-13T20:01:27;17.40;99.90
26051;DHT22;13825;53.496;10.020;2023-07-13T20:03:55;17.30;99.90
26051;DHT22;13825;53.496;10.020;2023-07-13T20:06:28;17.20;1.00
26051;DHT22;13825;53.496;10.020;2023-07-13T20:08:57;17.20;99.90
26051;DHT22;13825;53.496;10.020;2023-07-13T20:11:24;17.00;99.90
26051;DHT22;13825;53.496;10.020;2023-07-13T20:13:51;17.00;1.00
26051;DHT22;13825;53.496;10.020;2023-07-13T20:16:18;16.90;1.00
26051;DHT22;13825;53.496;10.020;2023-07-13T20:18:46;16.90;99.90
26051;DHT22;13825;53.496;10.020;2023-07-13T20:21:16;16.80;1.00
26051;DHT22;13825;53.496;10.020;2023-07-13T20:23:43;16.80;1.00
26051;DHT22;13825;53.496;10.020;2023-07-13T20:26:12;16.70;1.00
26051;DHT22;13825;53.496;10.020;2023-07-13T20:28:39;16.70;1.00
26051;DHT22;13825;53.496;10.020;2023-07-13T20:31:12;16.70;1.00
26051;DHT22;13825;53.496;10.020;2023-07-13T20:33:40;16.70;51.10
26051;DHT22;13825;53.496;10.020;2023-07-13T20:36:13;16.70;20.30
26051;DHT22;13825;53.496;10.020;2023-07-13T20:38:40;16.70;99.90
26051;DHT22;13825;53.496;10.020;2023-07-13T20:41:12;16.60;99.90
26051;DHT22;13825;53.496;10.020;2023-07-13T20:43:40;16.70;99.90
26051;DHT22;13825;53.496;10.020;2023-07-13T20:46:13;16.60;99.90
26051;DHT22;13825;53.496;10.020;2023-07-13T20:48:42;16.60;99.90
26051;DHT22;13825;53.496;10.020;2023-07-13T20:51:14;16.60;99.90
26051;DHT22;13825;53.496;10.020;2023-07-13T20:53:42;16.60;99.90
26051;DHT22;13825;53.496;10.020;2023-07-13T20:56:12;16.60;99.90
26051;DHT22;13825;53.496;10.020;2023-07-13T20:58:43;16.60;99.90
26051;DHT22;13825;53.496;10.020;2023-07-13T21:01:15;16.50;99.90
26051;DHT22;13825;53.496;10.020;2023-07-13T21:03:42;16.50;99.90
26051;DHT22;13825;53.496;10.020;2023-07-13T21:06:14;16.50;99.90
26051;DHT22;13825;53.496;10.020;2023-07-13T21:08:42;16.50;99.90
26051;DHT22;13825;53.496;10.020;2023-07-13T21:11:09;16.50;99.90
26051;DHT22;13825;53.496;10.020;2023-07-13T21:13:37;16.50;99.90
26051;DHT22;13825;53.496;10.020;2023-07-13T21:16:17;16.50;99.90
26051;DHT22;13825;53.496;10.020;2023-07-13T21:18:50;16.60;99.90
26051;DHT22;13825;53.496;10.020;2023-07-13T21:21:19;16.50;99.90
26051;DHT22;13825;53.496;10.020;2023-07-13T21:23:47;16.20;99.90
26051;DHT22;13825;53.496;10.020;2023-07-13T21:26:17;16.20;99.90
26051;DHT22;13825;53.496;10.020;2023-07-13T21:28:47;16.20;99.90
26051;DHT22;13825;53.496;10.020;2023-07-13T21:31:21;16.20;99.90
26051;DHT22;13825;53.496;10.020;2023-07-13T21:33:53;16.20;99.90
26051;DHT22;13825;53.496;10.020;2023-07-13T21:36:21;16.10;99.90
26051;DHT22;13825;53.496;10.020;2023-07-13T21:38:51;16.10;99.90
26051;DHT22;13825;53.496;10.020;2023-07-13T21:41:29;16.00;99.90
26051;DHT22;13825;53.496;10.020;2023-07-13T21:44:01;16.00;99.90